Time;durP1;ratioP1;P1;durP2;ratioP2;P2;SDS_P1;SDS_P2;PMS_P1;PMS_P2;Temp;Humidity;BMP_temperature;BMP_pressure;BME280_temperature;BME280_humidity;BME280_pressure;Samples;Min_cycle;Max_cycle;Signal;HPM_P1;HPM_P2
2023/03/06 00:01:03;;;;;;;6.00;1.83;;;2.80;99.90;;;;;;6192781;23;20023;-91
2023/03/06 00:03:48;;;;;;;5.93;2.13;;;;;;;;;;6215456;23;20111;-90
2023/03/06 00:06:32;;;;;;;10.17;2.60;;;;;;;;;;6172405;23;20015;-90
2023/03/06 00:09:17;;;;;;;4.83;1.67;;;;;;;;;;6192247;23;20124;-90
2023/03/06 00:12:01;;;;;;;6.00;1.93;;;;;;;;;;6171863;23;20039;-89
2023/03/06 00:14:45;;;;;;;8.93;1.63;;;;;;;;;;6171860;23;20024;-91
2023/03/06 00:17:30;;;;;;;5.10;1.60;;;;;;;;;;6171300;23;20020;-90
2023/03/06 00:20:15;;;;;;;4.60;1.70;;;;;;;;;;6171434;23;20020;-90
2023/03/06 00:22:59;;;;;;;5.77;1.67;;;;;;;;;;6171349;23;20028;-90
2023/03/06 00:25:45;;;;;;;6.17;1.90;;;;;;;;;;6192680;23;20066;-90
2023/03/06 00:28:30;;;;;;;6.30;1.97;;;;;;;;;;6192498;23;20020;-90
2023/03/06 00:31:15;;;;;;;5.70;1.87;;;;;;;;;;6171299;23;20066;-90
2023/03/06 00:33:59;;;;;;;4.83;2.33;;;;;;;;;;6215075;23;20461;-89
2023/03/06 00:36:44;;;;;;;5.23;1.77;;;;;;;;;;6192880;23;20015;-90
2023/03/06 00:39:28;;;;;;;8.67;2.00;;;;;;;;;;6193995;23;20031;-90
2023/03/06 00:42:16;;;;;;;7.30;1.53;;;2.90;99.90;;;;;;6192858;23;20019;-91
2023/03/06 00:45:00;;;;;;;4.40;2.47;;;;;;;;;;6192529;23;20400;-90
2023/03/06 00:47:44;;;;;;;7.40;1.80;;;;;;;;;;6171811;23;20047;-91
2023/03/06 00:50:29;;;;;;;6.07;1.60;;;;;;;;;;6170835;23;20449;-89
2023/03/06 00:53:14;;;;;;;6.63;1.97;;;;;;;;;;6191892;23;20382;-90
2023/03/06 00:55:58;;;;;;;8.10;2.53;;;;;;;;;;6192806;23;20396;-89
2023/03/06 00:58:43;;;;;;;8.63;1.70;;;;;;;;;;6192185;23;20019;-89
2023/03/06 01:01:28;;;;;;;4.97;1.97;;;;;;;;;;6171059;23;20458;-90
2023/03/06 01:04:13;;;;;;;4.73;1.90;;;;;;;;;;6171705;23;20015;-89
2023/03/06 01:06:57;;;;;;;7.53;1.83;;;;;;;;;;6192455;23;20031;-89
2023/03/06 01:09:42;;;;;;;6.97;1.60;;;;;;;;;;6192493;23;20016;-89
2023/03/06 01:12:26;;;;;;;5.87;2.60;;;;;;;;;;6191945;23;20019;-89
2023/03/06 01:15:12;;;;;;;6.07;2.00;;;3.00;99.90;;;;;;6192240;23;20443;-90
2023/03/06 01:17:56;;;;;;;4.23;1.90;;;;;;;;;;6192446;23;20012;-90
2023/03/06 01:20:41;;;;;;;6.60;2.17;;;;;;;;;;6192149;23;20525;-90
2023/03/06 01:23:25;;;;;;;5.47;1.67;;;;;;;;;;6191433;23;20020;-89
2023/03/06 01:26:10;;;;;;;10.87;2.23;;;;;;;;;;6192345;23;20028;-90
2023/03/06 01:28:56;;;;;;;8.77;1.87;;;;;;;;;;6214992;23;20011;-90
2023/03/06 01:31:40;;;;;;;6.23;1.83;;;;;;;;;;6171116;23;20059;-89
2023/03/06 01:34:25;;;;;;;10.97;1.93;;;3.00;99.90;;;;;;6191632;23;20347;-90
2023/03/06 01:37:09;;;;;;;6.73;1.83;;;;;;;;;;6192007;23;20016;-89
2023/03/06 01:39:54;;;;;;;7.10;1.77;;;;;;;;;;6192385;23;20522;-90
2023/03/06 01:42:38;;;;;;;8.00;2.63;;;;;;;;;;6191471;23;20054;-89
2023/03/06 01:45:23;;;;;;;6.00;1.57;;;;;;;;;;6213936;23;20016;-88
2023/03/06 01:48:08;;;;;;;5.17;2.03;;;;;;;;;;6191906;23;20015;-90
2023/03/06 01:50:52;;;;;;;6.20;1.70;;;;;;;;;;6190940;23;20024;-88
2023/03/06 01:53:39;;;;;;;5.37;1.60;;;3.00;99.90;;;;;;6191037;23;20070;-89
2023/03/06 01:56:24;;;;;;;5.97;1.70;;;;;;;;;;6191515;23;20012;-88
2023/03/06 01:59:10;;;;;;;4.50;2.23;;;;;;;;;;6193118;23;20446;-88
2023/03/06 02:01:55;;;;;;;6.63;1.67;;;3.00;99.90;;;;;;6193971;23;20082;-88
2023/03/06 02:04:41;;;;;;;5.13;1.87;;;;;;;;;;6193277;23;20103;-89
2023/03/06 02:07:26;;;;;;;8.57;1.90;;;;;;;;;;6193243;23;20058;-88
2023/03/06 02:10:11;;;;;;;7.67;2.20;;;3.00;99.90;;;;;;6216405;23;20470;-87
2023/03/06 02:12:56;;;;;;;8.60;1.90;;;;;;;;;;6172778;23;20039;-88
2023/03/06 02:15:41;;;;;;;7.60;2.43;;;;;;;;;;6193539;23;20023;-87
2023/03/06 02:18:25;;;;;;;5.77;1.97;;;;;;;;;;6172545;23;20019;-88
2023/03/06 02:21:19;;;;;;;7.13;1.83;;;3.00;99.90;;;;;;6193698;23;20512;-87
2023/03/06 02:24:25;;;;;;;4.00;1.73;;;3.10;99.90;;;;;;6216331;23;20023;-88
2023/03/06 02:27:13;;;;;;;3.47;1.60;;;3.00;99.90;;;;;;6193776;23;20066;-87
2023/03/06 02:29:57;;;;;;;8.80;1.87;;;;;;;;;;6193595;23;20047;-87
2023/03/06 02:32:42;;;;;;;6.40;1.73;;;;;;;;;;6215406;23;20071;-88
2023/03/06 02:35:29;;;;;;;5.47;1.97;;;3.00;99.90;;;;;;6215970;23;20015;-87
2023/03/06 02:38:16;;;;;;;6.00;2.10;;;3.10;99.90;;;;;;6193558;23;20062;-88
2023/03/06 02:41:06;;;;;;;5.87;2.30;;;3.00;99.90;;;;;;6215970;23;20462;-88
2023/03/06 02:43:51;;;;;;;7.60;2.10;;;;;;;;;;6192977;23;20473;-87
2023/03/06 02:46:36;;;;;;;5.80;2.03;;;;;;;;;;6172202;23;20023;-87
2023/03/06 02:49:20;;;;;;;9.10;2.43;;;;;;;;;;6193339;23;20023;-88
2023/03/06 02:52:06;;;;;;;5.63;1.90;;;3.00;99.90;;;;;;6193198;23;20032;-88
2023/03/06 02:54:51;;;;;;;6.93;2.07;;;;;;;;;;6192687;23;20099;-87
2023/03/06 02:57:35;;;;;;;8.50;2.00;;;;;;;;;;6193080;23;20330;-87
2023/03/06 03:00:20;;;;;;;6.67;2.33;;;;;;;;;;6193448;23;20071;-87
2023/03/06 03:03:05;;;;;;;7.03;2.60;;;;;;;;;;6193384;23;20454;-88
2023/03/06 03:05:50;;;;;;;3.80;1.97;;;;;;;;;;6192607;23;20038;-87
2023/03/06 03:08:34;;;;;;;4.23;2.07;;;;;;;;;;6192649;23;20012;-87
2023/03/06 03:11:19;;;;;;;3.60;1.80;;;;;;;;;;6193539;23;20450;-86
2023/03/06 03:14:03;;;;;;;4.97;1.80;;;;;;;;;;6215706;23;20343;-86
2023/03/06 03:16:48;;;;;;;6.67;2.00;;;;;;;;;;6215209;23;20016;-87
2023/03/06 03:19:32;;;;;;;5.13;2.00;;;;;;;;;;6193182;23;20015;-86
2023/03/06 03:22:18;;;;;;;4.10;1.70;;;;;;;;;;6172641;23;20024;-86
2023/03/06 03:25:03;;;;;;;2.30;1.27;;;;;;;;;;6193172;23;20055;-86
2023/03/06 03:27:48;;;;;;;3.60;1.87;;;;;;;;;;6192472;23;20339;-87
2023/03/06 03:30:32;;;;;;;3.60;2.20;;;;;;;;;;6215445;23;20039;-86
2023/03/06 03:33:17;;;;;;;4.73;2.07;;;;;;;;;;6192956;23;20059;-87
2023/03/06 03:36:04;;;;;;;3.60;2.30;;;2.30;99.90;;;;;;6215520;23;20071;-87
2023/03/06 03:38:48;;;;;;;4.23;2.10;;;;;;;;;;6214928;23;20047;-86
2023/03/06 03:41:33;;;;;;;4.10;2.13;;;;;;;;;;6215154;23;20095;-86
2023/03/06 03:44:18;;;;;;;3.67;1.80;;;;;;;;;;6215513;23;20055;-87
2023/03/06 03:47:02;;;;;;;4.67;2.17;;;;;;;;;;6192937;23;20067;-86
2023/03/06 03:49:46;;;;;;;4.67;2.03;;;;;;;;;;6192117;23;20078;-87
2023/03/06 03:52:31;;;;;;;4.30;1.73;;;;;;;;;;6215502;23;20051;-86
2023/03/06 03:55:15;;;;;;;3.97;1.77;;;1.70;99.90;;;;;;6215132;23;20019;-86
2023/03/06 03:58:00;;;;;;;3.03;1.97;;;;;;;;;;6192225;23;20047;-86
2023/03/06 04:00:46;;;;;;;4.07;1.90;;;;;;;;;;6192385;23;20505;-87
2023/03/06 04:03:31;;;;;;;3.20;1.53;;;;;;;;;;6172062;23;20079;-86
2023/03/06 04:06:16;;;;;;;4.40;1.80;;;1.60;99.90;;;;;;6192905;23;20087;-86
2023/03/06 04:09:01;;;;;;;4.63;1.63;;;;;;;;;;6214565;23;20020;-86
2023/03/06 04:11:46;;;;;;;5.30;2.20;;;;;;;;;;6192219;23;20019;-86
2023/03/06 04:14:30;;;;;;;3.47;1.80;;;;;;;;;;6192492;23;20339;-86
2023/03/06 04:17:15;;;;;;;4.33;1.60;;;;;;;;;;6192869;23;20339;-86
2023/03/06 04:20:00;;;;;;;3.10;1.57;;;1.60;99.90;;;;;;6214557;23;20490;-86
2023/03/06 04:22:45;;;;;;;3.90;1.70;;;;;;;;;;6191755;23;20454;-87
2023/03/06 04:25:30;;;;;;;4.07;1.77;;;;;;;;;;6192822;23;20011;-86
2023/03/06 04:28:15;;;;;;;3.20;1.67;;;;;;;;;;6192419;23;20419;-87
2023/03/06 04:30:59;;;;;;;3.33;1.43;;;;;;;;;;6214385;23;20046;-87
2023/03/06 04:33:44;;;;;;;3.20;1.60;;;;;;;;;;6191779;23;20062;-87
2023/03/06 04:36:33;;;;;;;3.73;1.80;;;1.50;99.90;;;;;;6214894;23;20058;-86
2023/03/06 04:39:18;;;;;;;3.40;1.57;;;;;;;;;;6192603;23;20059;-86
2023/03/06 04:42:02;;;;;;;5.00;1.90;;;;;;;;;;6191906;23;20020;-87
2023/03/06 04:44:47;;;;;;;5.30;1.53;;;;;;;;;;6191884;23;20015;-86
2023/03/06 04:47:31;;;;;;;5.30;1.70;;;;;;;;;;6192304;23;20020;-86
2023/03/06 04:50:17;;;;;;;2.63;1.43;;;1.60;99.90;;;;;;6192049;23;20019;-86
2023/03/06 04:53:03;;;;;;;4.63;1.73;;;;;;;;;;6192040;23;20063;-86
2023/03/06 04:55:48;;;;;;;3.43;1.57;;;;;;;;;;6214377;23;20066;-87
2023/03/06 04:58:32;;;;;;;5.00;1.90;;;;;;;;;;6192166;23;20016;-86
2023/03/06 05:01:17;;;;;;;3.50;1.70;;;;;;;;;;6215057;23;20016;-86
2023/03/06 05:04:01;;;;;;;6.60;1.80;;;;;;;;;;6170762;23;20111;-86
2023/03/06 05:06:46;;;;;;;2.60;1.70;;;;;;;;;;6214802;23;20016;-87
2023/03/06 05:09:30;;;;;;;3.87;1.90;;;;;;;;;;6214665;23;20088;-86
2023/03/06 05:12:15;;;;;;;4.23;2.03;;;;;;;;;;6214691;23;20036;-86
2023/03/06 05:14:59;;;;;;;3.43;1.60;;;;;;;;;;6191766;23;20534;-86
2023/03/06 05:17:45;;;;;;;3.03;1.53;;;;;;;;;;6214688;23;20347;-86
2023/03/06 05:20:29;;;;;;;5.03;1.97;;;;;;;;;;6171693;23;20016;-86
2023/03/06 05:23:14;;;;;;;5.37;1.90;;;;;;;;;;6214062;23;20071;-86
2023/03/06 05:25:59;;;;;;;4.20;1.73;;;;;;;;;;6214192;23;20023;-86
2023/03/06 05:28:44;;;;;;;3.40;1.97;;;;;;;;;;6192068;23;20086;-87
2023/03/06 05:31:28;;;;;;;5.27;2.10;;;;;;;;;;6171300;23;20474;-86
2023/03/06 05:34:16;;;;;;;4.13;1.83;;;1.60;99.90;;;;;;6215723;23;20024;-86
2023/03/06 05:37:00;;;;;;;4.77;2.37;;;;;;;;;;6193714;23;20022;-86
2023/03/06 05:39:45;;;;;;;4.93;2.53;;;;;;;;;;6194072;23;20020;-86
2023/03/06 05:42:30;;;;;;;3.17;1.80;;;;;;;;;;6193963;23;20458;-86
2023/03/06 05:45:15;;;;;;;4.80;2.20;;;;;;;;;;6172661;23;20495;-87
2023/03/06 05:47:59;;;;;;;4.50;2.03;;;;;;;;;;6193575;23;20031;-86
2023/03/06 05:50:44;;;;;;;3.83;2.27;;;;;;;;;;6193691;23;20088;-86
2023/03/06 05:53:29;;;;;;;4.63;2.10;;;;;;;;;;6194003;23;20031;-87
2023/03/06 05:56:13;;;;;;;4.67;2.20;;;;;;;;;;6193473;23;20015;-86
2023/03/06 05:58:58;;;;;;;4.73;2.50;;;;;;;;;;6192556;23;20763;-87
2023/03/06 06:01:43;;;;;;;3.93;2.23;;;;;;;;;;6193492;23;20023;-86
2023/03/06 06:04:27;;;;;;;6.20;2.50;;;;;;;;;;6194097;23;20019;-86
2023/03/06 06:07:13;;;;;;;5.33;2.13;;;1.60;99.90;;;;;;6193337;23;20377;-87
2023/03/06 06:09:58;;;;;;;4.27;2.30;;;;;;;;;;6193416;23;20015;-87
2023/03/06 06:12:43;;;;;;;4.77;2.03;;;;;;;;;;6193575;23;20059;-86
2023/03/06 06:15:27;;;;;;;6.73;2.60;;;;;;;;;;6193070;23;20120;-85
2023/03/06 06:18:12;;;;;;;4.47;2.40;;;;;;;;;;6193614;23;20530;-87
2023/03/06 06:20:57;;;;;;;4.67;2.50;;;;;;;;;;6193506;23;20020;-86
2023/03/06 06:23:41;;;;;;;3.90;2.20;;;;;;;;;;6172343;23;20027;-87
2023/03/06 06:26:28;;;;;;;6.00;2.30;;;1.50;99.90;;;;;;6168932;23;20018;-88
2023/03/06 06:29:13;;;;;;;7.40;2.27;;;;;;;;;;6192580;23;20502;-87
2023/03/06 06:31:57;;;;;;;4.43;2.00;;;;;;;;;;6214791;23;20022;-86
2023/03/06 06:34:42;;;;;;;6.00;2.50;;;;;;;;;;6215535;23;20023;-87
2023/03/06 06:37:26;;;;;;;6.47;2.70;;;;;;;;;;6215968;23;20027;-87
2023/03/06 06:40:11;;;;;;;5.47;2.53;;;1.50;99.90;;;;;;6192715;23;20574;-87
2023/03/06 06:42:55;;;;;;;3.90;2.20;;;;;;;;;;6192950;23;20323;-87
2023/03/06 06:45:42;;;;;;;5.23;2.93;;;;;;;;;;6193189;23;20015;-87
2023/03/06 06:48:27;;;;;;;4.63;2.60;;;;;;;;;;6192981;23;20055;-87
2023/03/06 06:51:12;;;;;;;4.80;2.43;;;;;;;;;;6214957;23;20013;-87
2023/03/06 06:53:56;;;;;;;5.60;2.90;;;;;;;;;;6171322;23;20022;-86
2023/03/06 06:56:40;;;;;;;5.87;2.90;;;;;;;;;;6214646;23;20024;-87
2023/03/06 06:59:25;;;;;;;7.10;3.33;;;;;;;;;;6191425;23;20047;-87
2023/03/06 07:02:14;;;;;;;4.20;2.60;;;1.60;99.90;;;;;;6170765;23;20070;-87
2023/03/06 07:04:59;;;;;;;5.27;3.40;;;;;;;;;;6214739;23;20335;-87
2023/03/06 07:07:43;;;;;;;6.03;3.23;;;;;;;;;;6192155;23;20059;-87
2023/03/06 07:10:28;;;;;;;6.00;3.60;;;;;;;;;;6192201;23;20454;-87
2023/03/06 07:13:12;;;;;;;7.13;3.53;;;;;;;;;;6170865;23;20024;-87
2023/03/06 07:15:57;;;;;;;6.33;3.40;;;;;;;;;;6192135;23;20062;-87
2023/03/06 07:18:41;;;;;;;7.93;3.60;;;;;;;;;;6170917;23;20020;-87
2023/03/06 07:21:28;;;;;;;8.40;3.30;;;1.90;99.90;;;;;;6170683;23;20020;-86
2023/03/06 07:24:13;;;;;;;5.80;3.20;;;;;;;;;;6170741;23;20096;-89
2023/03/06 07:26:57;;;;;;;6.63;2.80;;;;;;;;;;6171187;23;20059;-86
2023/03/06 07:29:42;;;;;;;6.53;2.70;;;2.40;99.90;;;;;;6191897;23;20055;-86
2023/03/06 07:32:27;;;;;;;4.17;2.43;;;;;;;;;;6191472;23;20027;-87
2023/03/06 07:35:15;;;;;;;4.23;2.37;;;2.70;99.90;;;;;;6191401;23;20024;-87
2023/03/06 07:38:00;;;;;;;4.10;2.33;;;;;;;;;;6214809;23;20399;-85
2023/03/06 07:40:44;;;;;;;6.57;2.67;;;;;;;;;;6170841;23;20019;-87
2023/03/06 07:43:29;;;;;;;4.82;1.90;;;;;;;;;;6213800;23;20473;-87
2023/03/06 07:46:14;;;;;;;3.42;1.42;;;;;;;;;;6191463;23;20454;-87
2023/03/06 07:48:59;;;;;;;2.55;1.50;;;;;;;;;;6191904;23;20019;-87
2023/03/06 07:51:43;;;;;;;4.90;1.60;;;;;;;;;;6191520;23;20461;-87
2023/03/06 07:54:29;;;;;;;2.60;1.60;;;;;;;;;;6191396;23;20469;-87
2023/03/06 07:57:14;;;;;;;3.63;1.65;;;;;;;;;;6213594;23;20449;-87
2023/03/06 07:59:59;;;;;;;3.88;1.73;;;;;;;;;;6171095;23;20489;-87
2023/03/06 08:02:43;;;;;;;5.40;1.55;;;;;;;;;;6170717;23;20461;-88
2023/03/06 08:05:28;;;;;;;2.80;1.50;;;;;;;;;;6191313;23;20040;-88
2023/03/06 08:08:15;;;;;;;4.85;1.40;;;;;;;;;;6191425;23;20047;-89
2023/03/06 08:11:00;;;;;;;3.17;1.50;;;;;;;;;;6191527;23;20493;-88
2023/03/06 08:13:47;;;;;;;4.07;1.65;;;3.90;99.90;;;;;;6191634;23;20344;-88
2023/03/06 08:16:32;;;;;;;4.85;1.45;;;;;;;;;;6213598;23;20464;-87
2023/03/06 08:19:16;;;;;;;4.45;1.65;;;;;;;;;;6191365;23;20096;-88
2023/03/06 08:22:02;;;;;;;3.03;1.70;;;;;;;;;;6191640;23;20128;-89
2023/03/06 08:24:46;;;;;;;4.35;1.60;;;;;;;;;;6191248;23;20066;-88
2023/03/06 08:27:32;;;;;;;2.90;1.70;;;5.50;99.90;;;;;;6213587;23;20095;-89
2023/03/06 08:30:18;;;;;;;3.45;1.63;;;6.10;99.90;;;;;;6190841;23;20015;-88
2023/03/06 08:33:03;;;;;;;4.40;1.38;;;;;;;;;;6191352;23;20028;-89
2023/03/06 08:35:48;;;;;;;1.83;1.15;;;;;;;;;;6191501;23;20024;-89
2023/03/06 08:38:32;;;;;;;3.30;1.25;;;;;;;;;;6213619;23;20339;-89
2023/03/06 08:41:17;;;;;;;3.60;1.30;;;;;;;;;;6190601;23;20019;-88
2023/03/06 08:44:01;;;;;;;3.08;1.05;;;;;;;;;;6191319;23;20027;-87
2023/03/06 08:46:46;;;;;;;3.10;1.33;;;;;;;;;;6213813;23;20024;-88
2023/03/06 08:49:34;;;;;;;2.67;1.00;;;7.00;99.90;;;;;;6169865;23;20023;-90
2023/03/06 08:52:19;;;;;;;2.92;1.20;;;;;;;;;;6169720;23;20020;-86
2023/03/06 08:55:04;;;;;;;3.17;1.20;;;;;;;;;;6191101;23;20028;-88
2023/03/06 08:57:48;;;;;;;2.70;1.27;;;;;;;;;;6170241;23;20457;-89
2023/03/06 09:00:33;;;;;;;3.83;1.20;;;;;;;;;;6169644;23;20466;-89
2023/03/06 09:03:18;;;;;;;3.05;1.17;;;;;;;;;;6191288;23;20071;-89
2023/03/06 09:06:03;;;;;;;3.50;1.40;;;;;;;;;;6213625;23;20031;-89
2023/03/06 09:08:50;;;;;;;2.80;0.95;;;6.30;99.90;;;;;;6213701;23;20011;-90
2023/03/06 09:11:35;;;;;;;3.78;1.30;;;;;;;;;;6190716;23;20493;-88
2023/03/06 09:14:20;;;;;;;6.28;1.38;;;;;;;;;;6213707;23;20438;-89
2023/03/06 09:17:04;;;;;;;5.28;1.63;;;;;;;;;;6191393;23;20023;-89
2023/03/06 09:19:51;;;;;;;2.50;1.20;;;;;;;;;;6170514;23;20024;-90
2023/03/06 09:23:04;;;;;;;2.33;1.10;;;6.10;99.90;;;;;;6190441;23;20047;-93
2023/03/06 09:29:54;;;;;;;;;;;;;;;;;;;;;
2023/03/06 09:33:07;;;;;;;5.78;1.00;;;6.20;99.90;;;;;;6123278;23;20048;-92
2023/03/06 09:35:54;;;;;;;5.40;1.08;;;6.20;99.90;;;;;;6133066;23;20025;-91
2023/03/06 09:38:41;;;;;;;3.63;1.10;;;;;;;;;;6152566;23;20016;-90
2023/03/06 09:42:05;;;;;;;5.97;1.17;;;6.10;99.90;;;;;;6152377;23;20017;-93
2023/03/06 09:44:54;;;;;;;2.50;1.10;;;6.10;99.90;;;;;;6154480;23;20020;-92
2023/03/06 09:48:03;;;;;;;3.28;0.90;;;6.00;99.90;;;;;;6154228;23;20016;-93
2023/03/06 09:51:15;;;;;;;3.47;1.15;;;6.00;99.90;;;;;;6152418;23;20016;-91
2023/03/06 09:54:12;;;;;;;4.15;1.17;;;5.90;99.90;;;;;;6153072;23;20081;-92
2023/03/06 09:56:59;;;;;;;4.65;1.48;;;;;;;;;;6152909;23;20060;-89
2023/03/06 09:59:49;;;;;;;3.83;1.40;;;5.90;99.90;;;;;;6152078;23;20016;-93
2023/03/06 10:03:02;;;;;;;9.52;1.00;;;6.10;99.90;;;;;;6152409;23;20045;-92
2023/03/06 10:05:52;;;;;;;4.80;0.70;;;6.30;99.90;;;;;;6152317;23;20020;-93
2023/03/06 10:08:55;;;;;;;1.83;0.70;;;6.40;99.90;;;;;;6152708;23;20336;-90
2023/03/06 10:12:18;;;;;;;4.10;0.80;;;6.40;99.90;;;;;;6151651;23;20068;-92
2023/03/06 10:15:22;;;;;;;3.53;0.77;;;6.60;99.90;;;;;;6115040;23;20056;-90
2023/03/06 10:18:10;;;;;;;4.13;0.95;;;6.80;99.90;;;;;;6152920;23;20076;-90
2023/03/06 10:21:01;;;;;;;4.18;0.90;;;6.80;99.90;;;;;;6154355;23;20331;-89
2023/03/06 10:23:48;;;;;;;5.18;1.60;;;7.00;99.90;;;;;;6173060;23;20023;-89
2023/03/06 10:27:11;;;;;;;2.90;0.70;;;7.10;99.90;;;;;;6192804;23;20016;-92
2023/03/06 10:30:21;;;;;;;3.65;0.70;;;7.40;99.90;;;;;;6192425;23;20043;-93
2023/03/06 10:33:31;;;;;;;;;;;;;;;;;;;;;
2023/03/06 10:36:18;;;;;;;10.23;1.27;;;7.50;99.90;;;;;;6215400;23;20023;-93
2023/03/06 10:39:27;;;;;;;;;;;;;;;;;;;;;
2023/03/06 10:42:12;;;;;;;1.30;0.70;;;;;;;;;;6215744;23;20087;-92
2023/03/06 10:45:23;;;;;;;3.45;0.80;;;7.50;99.90;;;;;;6191868;23;20336;-94
2023/03/06 10:48:31;;;;;;;3.58;0.80;;;7.40;99.90;;;;;;6192797;23;20458;-92
2023/03/06 10:51:54;;;;;;;3.97;0.82;;;7.50;99.90;;;;;;6194634;23;20111;-94
2023/03/06 10:55:52;;;;;;;;;;;;;;;;;;;;;
2023/03/06 10:59:10;;;;;;;1.20;0.60;;;7.60;99.90;;;;;;6101931;23;20017;-92
2023/03/06 11:01:57;;;;;;;2.58;0.73;;;7.60;99.90;;;;;;6191641;23;20019;-90
2023/03/06 11:04:49;;;;;;;3.10;1.10;;;7.50;99.90;;;;;;6191835;23;20015;-91
2023/03/06 11:07:35;;;;;;;2.38;0.90;;;7.40;99.90;;;;;;6192399;23;20086;-90
2023/03/06 11:10:22;;;;;;;2.35;0.77;;;;;;;;;;6214919;23;20478;-90
2023/03/06 11:13:21;;;;;;;2.90;0.80;;;7.60;99.90;;;;;;6192342;23;20047;-89
2023/03/06 11:16:17;;;;;;;3.70;0.90;;;7.90;99.90;;;;;;6192286;23;20382;-90
2023/03/06 11:19:16;;;;;;;1.77;0.90;;;8.20;99.90;;;;;;6192211;23;20493;-88
2023/03/06 11:22:16;;;;;;;2.42;0.77;;;8.20;99.90;;;;;;6192081;23;20074;-90
2023/03/06 11:25:01;;;;;;;3.03;0.70;;;;;;;;;;6191278;23;20024;-89
2023/03/06 11:27:55;;;;;;;1.88;0.80;;;8.60;99.90;;;;;;6191233;23;20028;-90
2023/03/06 11:30:46;;;;;;;3.00;0.90;;;8.80;99.90;;;;;;6191349;23;20499;-90
2023/03/06 11:33:38;;;;;;;2.42;0.80;;;8.90;99.90;;;;;;6215114;23;20778;-90
2023/03/06 11:36:43;;;;;;;2.15;0.90;;;9.30;99.90;;;;;;6214967;23;20031;-91
2023/03/06 11:39:48;;;;;;;2.42;0.80;;;8.30;99.90;;;;;;6192514;23;20343;-90
2023/03/06 11:42:41;;;;;;;4.90;1.25;;;8.00;99.90;;;;;;6192540;23;20020;-89
2023/03/06 11:45:47;;;;;;;3.78;1.00;;;7.80;99.90;;;;;;6193385;23;20047;-89
2023/03/06 11:48:42;;;;;;;4.90;1.10;;;7.60;99.90;;;;;;6193179;23;20092;-89
2023/03/06 11:51:34;;;;;;;4.30;0.93;;;7.40;99.90;;;;;;6191969;23;20019;-90
2023/03/06 11:54:21;;;;;;;2.17;1.10;;;;;;;;;;6192349;23;20047;-90
2023/03/06 11:58:10;;;;;;;5.15;1.38;;;7.50;99.90;;;;;;6214497;23;20376;-90
2023/03/06 12:01:23;;;;;;;4.65;1.00;;;7.80;99.90;;;;;;6112411;23;20012;-89
2023/03/06 12:04:33;;;;;;;1.60;0.80;;;7.90;99.90;;;;;;6191549;23;20066;-90
2023/03/06 12:07:24;;;;;;;3.83;1.02;;;7.80;99.90;;;;;;6192236;23;20016;-90
2023/03/06 12:10:28;;;;;;;3.30;1.15;;;7.90;99.90;;;;;;6191738;23;20047;-89
2023/03/06 12:13:32;;;;;;;6.55;0.88;;;8.00;99.90;;;;;;6191526;23;20015;-91
2023/03/06 12:16:41;;;;;;;1.75;0.90;;;8.30;99.90;;;;;;6191445;23;20030;-90
2023/03/06 12:19:53;;;;;;;5.22;0.95;;;8.50;99.90;;;;;;6191364;23;20454;-89
2023/03/06 12:23:08;;;;;;;2.15;0.80;;;8.60;99.90;;;;;;6191464;23;20047;-90
2023/03/06 12:25:59;;;;;;;3.05;0.80;;;8.60;99.90;;;;;;6190820;23;20031;-90
2023/03/06 12:29:10;;;;;;;2.00;0.85;;;8.40;99.90;;;;;;6191504;23;20043;-90
2023/03/06 12:32:21;;;;;;;3.60;1.27;;;8.30;99.90;;;;;;6190923;23;20015;-90
2023/03/06 12:35:40;;;;;;;;;;;;;;;;;;;;;
2023/03/06 12:38:53;;;;;;;3.08;1.20;;;8.10;99.90;;;;;;6214070;23;20059;-91
2023/03/06 12:41:59;;;;;;;4.07;1.20;;;8.00;99.90;;;;;;6191502;23;20039;-90
2023/03/06 12:45:13;;;;;;;2.90;1.25;;;7.80;99.90;;;;;;6191630;23;20062;-91
2023/03/06 12:48:17;;;;;;;10.15;2.42;;;7.60;99.90;;;;;;6192288;23;20035;-90
2023/03/06 12:51:02;;;;;;;2.63;1.00;;;;;;;;;;6191417;23;20015;-90
2023/03/06 12:53:49;;;;;;;2.70;1.15;;;7.60;99.90;;;;;;6193171;23;20016;-90
2023/03/06 12:56:40;;;;;;;3.53;1.10;;;7.60;99.90;;;;;;6216176;23;20011;-91
2023/03/06 12:59:43;;;;;;;1.92;0.93;;;7.70;99.90;;;;;;6213629;23;20497;-91
2023/03/06 13:03:01;;;;;;;5.00;1.13;;;7.80;99.90;;;;;;6190885;23;20020;-91
2023/03/06 13:06:02;;;;;;;2.92;1.10;;;7.80;99.90;;;;;;6191274;23;20032;-90
2023/03/06 13:09:10;;;;;;;4.38;1.10;;;7.70;99.90;;;;;;6191629;23;20092;-91
2023/03/06 13:12:21;;;;;;;4.18;1.23;;;7.60;99.90;;;;;;6191112;23;20068;-89
2023/03/06 13:15:40;;;;;;;3.83;1.45;;;7.50;99.90;;;;;;6190524;23;20116;-91
2023/03/06 13:19:00;;;;;;;3.17;1.20;;;7.50;99.90;;;;;;6214059;23;20011;-91
2023/03/06 13:22:02;;;;;;;4.38;1.33;;;7.50;99.90;;;;;;6190787;23;20111;-89
2023/03/06 13:24:49;;;;;;;2.08;0.95;;;;;;;;;;6160404;23;20028;-89
2023/03/06 13:27:51;;;;;;;2.70;1.10;;;7.70;99.90;;;;;;6182495;23;20092;-90
2023/03/06 13:30:46;;;;;;;5.05;2.03;;;7.80;99.90;;;;;;6182176;23;20028;-90
2023/03/06 13:33:36;;;;;;;3.20;1.23;;;;;;;;;;6182738;23;20036;-90
2023/03/06 13:36:29;;;;;;;4.82;1.23;;;7.70;99.90;;;;;;6183346;23;20024;-91
2023/03/06 13:39:14;;;;;;;7.45;1.65;;;;;;;;;;6182061;23;20016;-90
2023/03/06 13:41:58;;;;;;;5.57;1.77;;;;;;;;;;6181812;23;20061;-91
2023/03/06 13:44:49;;;;;;;4.03;1.67;;;7.80;99.90;;;;;;6182689;23;20393;-90
2023/03/06 13:47:37;;;;;;;5.03;1.58;;;7.90;99.90;;;;;;6162251;23;20405;-90
2023/03/06 13:50:58;;;;;;;4.90;2.03;;;7.80;99.90;;;;;;6182678;23;20067;-88
2023/03/06 13:54:27;;;;;;;;;;;;;;;;;;;;;
2023/03/06 13:57:43;;;;;;;;;;;;;;;;;;;;;
2023/03/06 14:01:31;;;;;;;3.28;1.20;;;7.90;99.90;;;;;;6186708;23;20031;-94
2023/03/06 14:05:16;;;;;;;;;;;;;;;;;;;;;
2023/03/06 14:08:24;;;;;;;3.88;1.40;;;7.70;99.90;;;;;;6095449;23;20033;-89
2023/03/06 14:15:36;;;;;;;5.78;1.55;;;7.60;99.90;;;;;;6095781;23;20106;-94
2023/03/06 14:23:23;;;;;;;3.47;1.15;;;7.40;99.90;;;;;;5925703;24;20065;-94
2023/03/06 14:30:46;;;;;;;;;;;;;;;;;;;;;
2023/03/06 14:41:09;;;;;;;;;;;;;;;;;;;;;
2023/03/06 14:44:14;;;;;;;2.28;1.20;;;;;;;;;;5817702;24;20018;-94
2023/03/06 14:47:50;;;;;;;;;;;;;;;;;;;;;
2023/03/06 14:54:26;;;;;;;;;;;;;;;;;;;;;
2023/03/06 15:04:45;;;;;;;2.47;1.00;;;;;;;;;;6038839;23;20022;-94
2023/03/06 15:11:13;;;;;;;5.30;1.38;;;;;;;;;;6083477;23;20017;-94
2023/03/06 15:14:04;;;;;;;5.00;1.58;;;;;;;;;;6095453;23;20025;-92
2023/03/06 15:17:34;;;;;;;3.38;1.10;;;;;;;;;;6074937;23;20531;-95
2023/03/06 15:20:45;;;;;;;;;;;;;;;;;;;;;
2023/03/06 15:24:05;;;;;;;2.58;1.15;;;;;;;;;;6094909;23;20527;-93
2023/03/06 15:27:03;;;;;;;3.28;1.73;;;;;;;;;;6011294;23;20085;-92
2023/03/06 15:29:48;;;;;;;4.95;1.27;;;;;;;;;;6096077;23;20354;-94
2023/03/06 15:33:24;;;;;;;;;;;;;;;;;;;;;
2023/03/06 16:03:40;;;;;;;2.78;1.40;;;;;;;;;;6166214;23;20016;-96
2023/03/06 16:06:36;;;;;;;4.40;1.33;;;;;;;;;;5992681;23;20039;-94
2023/03/06 16:09:32;;;;;;;4.65;1.20;;;;;;;;;;6156685;23;20016;-96
2023/03/06 16:12:27;;;;;;;2.38;1.30;;;;;;;;;;6115819;23;20048;-95
2023/03/06 16:19:01;;;;;;;;;;;;;;;;;;;;;
2023/03/06 16:28:26;;;;;;;;;;;;;;;;;;;;;
2023/03/06 16:37:40;;;;;;;4.25;2.78;;;;;;;;;;6142951;23;20025;-94
2023/03/06 16:41:43;;;;;;;;;;;;;;;;;;;;;
2023/03/06 16:48:00;;;;;;;;;;;;;;;;;;;;;
2023/03/06 16:54:48;;;;;;;;;;;;;;;;;;;;;
2023/03/06 17:11:33;;;;;;;;;;;;;;;;;;;;;
2023/03/06 17:14:49;;;;;;;9.17;5.10;;;;;;;;;;6065515;23;20075;-92
2023/03/06 17:21:29;;;;;;;8.67;5.23;;;;;;;;;;6007924;23;20019;-91
2023/03/06 17:24:16;;;;;;;11.10;6.27;;;;;;;;;;6006186;23;20204;-91
2023/03/06 17:27:12;;;;;;;9.33;5.93;;;;;;;;;;6044564;23;20046;-91
2023/03/06 17:33:18;;;;;;;11.57;6.60;;;;;;;;;;6156112;23;20097;-89
2023/03/06 17:36:03;;;;;;;13.43;5.90;;;;;;;;;;6134375;23;20408;-91
2023/03/06 17:38:53;;;;;;;13.77;7.17;;;;;;;;;;6134531;23;20013;-89
2023/03/06 17:41:40;;;;;;;10.70;6.67;;;;;;;;;;6134168;23;20076;-89
2023/03/06 17:44:27;;;;;;;12.80;7.37;;;;;;;;;;6134490;23;20016;-90
2023/03/06 17:47:15;;;;;;;12.17;6.77;;;;;;;;;;6134551;23;20016;-89
2023/03/06 17:49:59;;;;;;;12.00;6.70;;;;;;;;;;6134564;23;20368;-89
2023/03/06 17:52:46;;;;;;;15.47;7.40;;;;;;;;;;6134714;23;20343;-89
2023/03/06 17:55:47;;;;;;;;;;;;;;;;;;;;;
2023/03/06 17:58:37;;;;;;;13.43;7.40;;;;;;;;;;6156775;23;20036;-91
2023/03/06 18:01:36;;;;;;;;;;;;;;;;;;;;;
2023/03/06 18:04:26;;;;;;;14.07;8.87;;;;;;;;;;6156707;23;20031;-91
2023/03/06 18:07:11;;;;;;;15.63;7.80;;;;;;;;;;6114590;23;20056;-90
2023/03/06 18:09:55;;;;;;;16.77;11.07;;;;;;;;;;6134734;23;20020;-90
2023/03/06 18:12:42;;;;;;;21.07;12.60;;;;;;;;;;6134634;23;20352;-91
2023/03/06 18:15:30;;;;;;;18.03;11.47;;;;;;;;;;6134517;23;20017;-93
2023/03/06 18:18:19;;;;;;;18.83;11.87;;;;;;;;;;6113716;23;20021;-92
2023/03/06 18:21:04;;;;;;;23.37;13.17;;;3.40;99.90;;;;;;6134439;23;20012;-92
2023/03/06 18:24:11;;;;;;;21.77;13.93;;;3.40;99.90;;;;;;6136381;23;20444;-91
2023/03/06 18:26:58;;;;;;;24.07;13.27;;;;;;;;;;6134976;23;20017;-92
2023/03/06 18:29:55;;;;;;;;;;;;;;;;;;;;;
2023/03/06 18:32:52;;;;;;;21.80;13.00;;;;;;;;;;6131810;23;20025;-91
2023/03/06 18:36:06;;;;;;;22.03;13.03;;;3.30;99.90;;;;;;6115450;23;20016;-91
2023/03/06 18:38:54;;;;;;;22.03;14.20;;;;;;;;;;6114792;23;20028;-94
2023/03/06 18:42:08;;;;;;;24.70;14.27;;;3.30;99.90;;;;;;6135487;23;20080;-91